Flight Track Log - Related Links

Times and Time Zones

All times are in EST time to prevent confusion due to time zone crossing. See the SWA2788 flight status page for this flight to view local times or setup timezone preferences in your user account.

Time Position Orientation Groundspeed Altitude Reporting Facility
EST Latitude Longitude Course Direction KTS MPH feet Rate Location/Type
Sat 05:01:03 PM 27.9500 -82.5333 204° Southwest 169 194 800  Level Tampa TRACON
Sat 05:02:21 PM 27.8833 -82.5667 204° Southwest 237 273 3,500 2,182 Climbing Tampa TRACON
Sat 05:03:15 PM 27.9000 -82.6167 291° West 250 288 5,600 2,944 Climbing Tampa TRACON
Sat 05:04:09 PM 27.9667 -82.6167 360° North 279 321 8,800 3,316 Climbing Tampa TRACON
Sat 05:05:09 PM 28.0500 -82.6167 360° North 291 335 11,900 1,905 Climbing Tampa TRACON
Sat 05:07:18 PM 28.2164 -82.5958 North 308 354 14,800 1,778 Climbing Jacksonville Center
Sat 05:08:18 PM 28.3039 -82.5883 North 308 354 17,500 2,450 Climbing Jacksonville Center
Sat 05:09:18 PM 28.3958 -82.5833 North 315 362 19,700 2,350 Climbing Jacksonville Center
Sat 05:10:18 PM 28.4958 -82.5856 359° North 336 387 22,200 2,400 Climbing Jacksonville Center
Sat 05:11:18 PM 28.5983 -82.5875 359° North 349 402 24,500 2,200 Climbing Jacksonville Center
Sat 05:12:18 PM 28.7006 -82.5919 358° North 354 407 26,600 1,750 Climbing Jacksonville Center
Sat 05:13:18 PM 28.8028 -82.6083 352° North 365 420 28,000 850 Climbing Jacksonville Center
Sat 05:14:18 PM 28.9114 -82.6197 355° North 375 432 28,300 900 Climbing Jacksonville Center
Sat 05:15:18 PM 29.0242 -82.6361 353° North 392 451 29,800 1,600 Climbing Jacksonville Center
Sat 05:16:18 PM 29.1389 -82.6547 352° North 398 458 31,500 1,250 Climbing Jacksonville Center
Sat 05:17:18 PM 29.2497 -82.6711 353° North 404 465 32,300 1,000 Climbing Jacksonville Center
Sat 05:18:18 PM 29.3561 -82.7092 343° North 404 465 33,500 850 Climbing Jacksonville Center
Sat 05:19:18 PM 29.4689 -82.7447 345° North 409 471 34,000 600 Climbing Jacksonville Center
Sat 05:20:18 PM 29.6089 -82.7469 359° North 434 499 34,700 900 Climbing Jacksonville Center
Sat 05:21:18 PM 29.7383 -82.7372 North 452 520 35,800 1,100 Climbing Jacksonville Center
Sat 05:22:18 PM 29.8614 -82.7272 North 455 524 36,900 1,100 Climbing Jacksonville Center
Sat 05:23:18 PM 29.9908 -82.7200 North 463 533 38,000 850 Climbing Jacksonville Center
Sat 05:24:18 PM 30.1097 -82.7100 North 458 527 38,600 500 Climbing Jacksonville Center
Sat 05:25:18 PM 30.2392 -82.7025 North 458 527 39,000 200 Climbing Jacksonville Center
Sat 05:26:18 PM 30.3708 -82.6950 North 458 527 39,000  Level Jacksonville Center
Sat 05:27:18 PM 30.5022 -82.6853 North 458 527 39,000  Level Jacksonville Center
Sat 05:28:18 PM 30.6506 -82.6631 North 464 534 39,000  Level Jacksonville Center
Sat 05:29:18 PM 30.7819 -82.6436 North 470 541 39,000  Level Jacksonville Center
Sat 05:30:18 PM 30.9156 -82.6189 North 476 548 39,000  Level Jacksonville Center
Sat 05:31:18 PM 31.0469 -82.5967 North 481 554 39,000  Level Jacksonville Center
Sat 05:32:18 PM 31.1556 -82.5769 North 481 554 39,000  Level Jacksonville Center
Sat 05:33:18 PM 31.2997 -82.5547 North 481 554 39,000  Level Jacksonville Center
Sat 05:34:18 PM 31.4372 -82.5250 10° North 487 560 39,000  Level Jacksonville Center
Sat 05:35:18 PM 31.5708 -82.5000 North 487 560 39,000  Level Jacksonville Center
Sat 05:37:10 PM 31.8139 -82.4675 North 476 548 39,000  Level Atlanta Center
Sat 05:38:10 PM 31.9472 -82.4456 North 470 541 39,000  Level Atlanta Center
Sat 05:39:10 PM 32.0761 -82.4236 North 470 541 39,000  Level Atlanta Center
Sat 05:40:10 PM 32.2075 -82.4039 North 470 541 39,000  Level Atlanta Center
Sat 05:41:10 PM 32.3450 -82.3819 North 465 535 39,000  Level Atlanta Center
Sat 05:42:10 PM 32.4742 -82.3622 North 465 535 39,000  Level Atlanta Center
Sat 05:43:10 PM 32.6031 -82.3400 North 465 535 39,000  Level Atlanta Center
Sat 05:44:10 PM 32.7322 -82.3203 North 465 535 39,000  Level Atlanta Center
Sat 05:45:10 PM 32.8572 -82.3006 North 460 529 39,000  Level Atlanta Center
Sat 05:46:10 PM 32.9719 -82.2833 North 468 539 39,000  Level Atlanta Center
Sat 05:47:10 PM 33.0967 -82.2608 North 462 532 39,000  Level Atlanta Center
Sat 05:48:10 PM 33.2258 -82.2383 North 462 532 39,000  Level Atlanta Center
Sat 05:49:10 PM 33.3528 -82.2183 North 462 532 39,000  Level Atlanta Center
Sat 05:50:10 PM 33.4800 -82.1983 North 462 532 39,000  Level Atlanta Center
Sat 05:51:10 PM 33.6069 -82.1756 North 462 532 39,000  Level Atlanta Center
Sat 05:52:10 PM 33.7358 -82.1553 North 462 532 39,000  Level Atlanta Center
Sat 05:53:10 PM 33.8608 -82.1350 North 457 526 39,000  Level Atlanta Center
Sat 05:54:10 PM 33.9983 -82.1094 North 457 526 39,000  Level Atlanta Center
Sat 05:55:10 PM 34.1253 -82.0889 North 452 520 39,000  Level Atlanta Center
Sat 05:56:10 PM 34.2481 -82.0686 North 452 520 39,000  Level Atlanta Center
Sat 05:57:10 PM 34.3728 -82.0456 North 452 520 39,000  Level Atlanta Center
Sat 05:58:10 PM 34.4978 -82.0250 North 452 520 39,000  Level Atlanta Center
Sat 05:59:10 PM 34.6247 -82.0017 North 452 520 39,000  Level Atlanta Center
Sat 06:00:10 PM 34.7517 -81.9783 North 447 514 39,000  Level Atlanta Center
Sat 06:01:10 PM 34.8764 -81.9550 North 447 514 39,000  Level Atlanta Center
Sat 06:02:10 PM 35.0056 -81.9367 North 452 520 39,000  Level Atlanta Center
Sat 06:03:10 PM 35.1347 -81.9283 North 458 527 39,000  Level Atlanta Center
Sat 06:04:10 PM 35.2597 -81.9225 North 458 527 39,000  Level Atlanta Center
Sat 06:05:10 PM 35.3911 -81.9142 North 458 527 39,000  Level Atlanta Center
Sat 06:06:10 PM 35.5203 -81.9081 North 458 527 39,000  Level Atlanta Center
Sat 06:07:10 PM 35.6475 -81.9022 North 458 527 39,000  Level Atlanta Center
Sat 06:08:10 PM 35.7831 -81.8961 North 465 535 39,000  Level Atlanta Center
Sat 06:10:21 PM 36.0567 -81.8794 North 460 529 39,000  Level Indianapolis Center
Sat 06:11:22 PM 36.1814 -81.8736 North 454 522 39,000  Level Indianapolis Center
Sat 06:12:24 PM 36.3067 -81.8686 North 453 521 39,000  Level Indianapolis Center
Sat 06:13:25 PM 36.4322 -81.8622 North 453 521 39,000  Level Indianapolis Center
Sat 06:14:27 PM 36.5569 -81.8558 North 452 520 39,000  Level Indianapolis Center
Sat 06:15:28 PM 36.6806 -81.8314 North 454 522 39,000  Level Indianapolis Center
Sat 06:16:30 PM 36.8056 -81.7839 17° North 466 536 39,000  Level Indianapolis Center
Sat 06:17:31 PM 36.9514 -81.7300 16° North 467 537 39,000  Level Indianapolis Center
Sat 06:18:33 PM 37.0753 -81.6839 17° North 467 537 39,000  Level Indianapolis Center
Sat 06:19:34 PM 37.1997 -81.6378 16° North 467 537 39,000  Level Indianapolis Center
Sat 06:20:36 PM 37.3244 -81.5911 17° North 467 537 39,000  Level Indianapolis Center
Sat 06:21:37 PM 37.4483 -81.5439 17° North 467 537 39,000  Level Indianapolis Center
Sat 06:22:39 PM 37.5703 -81.4978 17° North 467 537 39,000  Level Indianapolis Center
Sat 06:23:40 PM 37.7214 -81.4414 16° North 478 550 39,000  Level Indianapolis Center
Sat 06:24:42 PM 37.8422 -81.3956 17° North 478 550 39,000  Level Indianapolis Center
Sat 06:25:43 PM 37.9697 -81.3478 16° North 478 550 39,000  Level Indianapolis Center
Sat 06:26:45 PM 38.0967 -81.2981 17° North 478 550 39,000  Level Indianapolis Center
Sat 06:27:46 PM 38.2214 -81.2525 16° North 475 547 39,000  Level Indianapolis Center
Sat 06:28:48 PM 38.3467 -81.2033 17° North 474 545 39,000  Level Indianapolis Center
Sat 06:29:49 PM 38.4961 -81.1450 17° North 474 545 39,000  Level Indianapolis Center
Sat 06:30:51 PM 38.6200 -81.0958 17° North 473 544 39,000  Level Indianapolis Center
Sat 06:31:52 PM 38.7425 -81.0486 17° North 469 540 39,000  Level Indianapolis Center
Sat 06:32:54 PM 38.8644 -81.0003 17° North 467 537 39,000  Level Indianapolis Center
Sat 06:33:55 PM 38.9850 -80.9536 17° North 460 529 39,000  Level Indianapolis Center
Sat 06:34:57 PM 39.1053 -80.9047 18° North 459 528 39,000  Level Indianapolis Center
Sat 06:35:58 PM 39.2511 -80.8497 16° North 458 527 39,000  Level Indianapolis Center
Sat 06:37:00 PM 39.3708 -80.8017 17° North 455 524 39,000  Level Indianapolis Center
Sat 06:38:01 PM 39.4928 -80.7542 17° North 455 524 39,000 -293 Level Indianapolis Center
Sat 06:39:03 PM 39.6125 -80.7056 17° North 454 522 38,400 -780 Descending Indianapolis Center
Sat 06:40:04 PM 39.7342 -80.6575 17° North 454 522 37,400 -683 Descending Indianapolis Center
Sat 06:41:06 PM 39.8561 -80.6069 18° North 456 525 37,000 -195 Descending Indianapolis Center
Sat 06:42:07 PM 39.9733 -80.5397 24° Northeast 467 537 37,000 -98 Level Indianapolis Center
Sat 06:43:09 PM 40.1133 -80.4561 25° Northeast 469 540 36,800 -585 Descending Indianapolis Center
Sat 06:44:10 PM 40.2322 -80.3856 24° Northeast 468 539 35,800 -976 Descending Indianapolis Center
Sat 06:45:12 PM 40.3547 -80.3150 24° Northeast 471 542 34,800 -906 Descending Indianapolis Center
Sat 06:46:29 PM 40.5003 -80.2308 24° Northeast 475 547 33,700 -913 Descending Cleveland Center
Sat 06:47:30 PM 40.6189 -80.1600 24° Northeast 469 540 32,700 -976 Descending Cleveland Center
Sat 06:48:32 PM 40.7364 -80.0897 24° Northeast 467 537 31,700 -1,073 Descending Cleveland Center
Sat 06:49:33 PM 40.8728 -80.0086 24° Northeast 466 536 30,500 -1,024 Descending Cleveland Center
Sat 06:50:35 PM 40.9747 -79.9492 24° Northeast 465 535 29,600 -927 Descending Cleveland Center
Sat 06:51:36 PM 41.0883 -79.8792 25° Northeast 454 522 28,600 -1,082 Descending Cleveland Center
Sat 06:52:37 PM 41.2214 -79.7994 24° Northeast 452 520 27,400 -1,073 Descending Cleveland Center
Sat 06:53:39 PM 41.3333 -79.7308 25° Northeast 447 514 26,400 -976 Descending Cleveland Center
Sat 06:54:40 PM 41.4444 -79.6636 24° Northeast 443 510 25,400 -984 Descending Cleveland Center
Sat 06:55:41 PM 41.5539 -79.5972 24° Northeast 436 502 24,400 -689 Descending Cleveland Center
Sat 06:56:42 PM 41.6611 -79.5319 24° Northeast 429 494 24,000 -195 Descending Cleveland Center
Sat 06:57:44 PM 41.7661 -79.4678 25° Northeast 419 482 24,000 -98 Level Cleveland Center
Sat 06:58:45 PM 41.8717 -79.4022 25° Northeast 419 482 23,800 -1,279 Descending Cleveland Center
Sat 06:59:46 PM 41.9969 -79.3258 24° Northeast 415 478 21,400 -2,213 Descending Cleveland Center
Sat 07:00:47 PM 42.0975 -79.2631 25° Northeast 401 461 19,300 -1,967 Descending Cleveland Center
Sat 07:01:48 PM 42.1967 -79.2022 24° Northeast 397 457 17,400 -2,000 Descending Cleveland Center
Sat 07:02:50 PM 42.2936 -79.1403 25° Northeast 392 451 15,200 -2,098 Descending Cleveland Center
Sat 07:03:51 PM 42.3869 -79.0825 25° Northeast 373 429 13,100 -2,016 Descending Cleveland Center
Sat 07:04:52 PM 42.4708 -79.0053 34° Northeast 373 429 11,100 -1,033 Descending Cleveland Center
Sat 07:05:53 PM 42.5508 -78.9258 36° Northeast 360 414 11,000 -246 Descending Cleveland Center
Sat 07:06:54 PM 42.6242 -78.8539 36° Northeast 332 382 10,600 -984 Descending Cleveland Center
Sat 07:07:55 PM 42.6997 -78.7783 36° Northeast 296 341 9,000 -1,525 Descending Cleveland Center
Sat 07:08:56 PM 42.7603 -78.7203 35° Northeast 283 326 7,500 -1,415 Descending Cleveland Center
Sat 07:09:58 PM 42.8250 -78.6611 34° Northeast 272 313 6,100 -878 Descending Cleveland Center
Sat 07:10:59 PM 42.8836 -78.6083 33° Northeast 247 284 5,700 -934 Descending Cleveland Center
Sat 07:12:00 PM 42.9344 -78.5664 31° Northeast 229 264 4,200 -1,426 Descending Cleveland Center
Sat 07:13:01 PM 42.9903 -78.5289 26° Northeast 225 259 2,800 -836 Descending Cleveland Center
Sat 07:14:02 PM 43.0100 -78.5917 293° West 181 208 2,500 -254 Descending Cleveland Center
Sat 07:14:59 PM 43.0000 -78.6500 257° West 161 185 2,300 -513 Descending Buffalo TRACON
Sat 07:15:59 PM 42.9667 -78.6833 216° Southwest 152 175 1,500 -800 Descending Buffalo TRACON

Login

Don't have an account? Register now (free) for customized features, flight alerts, and more!